GACFB EGEI-EGPO
Flight info
| Callsign | GACFB |
|---|---|
| Flight time | N/A |
| Altitude | 4000 |
| Route | 572057N0054001W 572050N0054545W DCT 572126N0054955W 573409N0055707W 575024N0060804W 580554N0061832W |
| Aircraft | C172/L-SDFG/C |
Departure
| Time | 2026-04-14 18:24 |
|---|---|
| Airport | Broadford Airstrip (EGEI) |
Arrival
| Time | N/A |
|---|---|
| Airport | Stornoway Airport (EGPO) |
| Time | Latitude | Longitude | Altitude | Speed | Heading |
|---|---|---|---|---|---|
| 2026-04-14 18:09 | 57.25331 | -5.82480 | 27 ft | 0 kts | 323° |
| 2026-04-14 18:21 | 57.25342 | -5.82490 | 27 ft | 8 kts | 337° |
| 2026-04-14 18:21 | 57.25365 | -5.82510 | 27 ft | 5 kts | 329° |
| 2026-04-14 18:21 | 57.25367 | -5.82606 | 29 ft | 10 kts | 240° |
| 2026-04-14 18:21 | 57.25320 | -5.82755 | 30 ft | 16 kts | 243° |
| 2026-04-14 18:22 | 57.25263 | -5.82983 | 32 ft | 21 kts | 247° |
| 2026-04-14 18:22 | 57.25207 | -5.83167 | 32 ft | 12 kts | 240° |
| 2026-04-14 18:22 | 57.25169 | -5.83305 | 31 ft | 9 kts | 239° |
| 2026-04-14 18:22 | 57.25159 | -5.83327 | 30 ft | 2 kts | 149° |
| 2026-04-14 18:23 | 57.25157 | -5.83306 | 31 ft | 1 kts | 56° |
| 2026-04-14 18:23 | 57.25157 | -5.83305 | 31 ft | 0 kts | 56° |
| 2026-04-14 18:23 | 57.25258 | -5.82992 | 32 ft | 60 kts | 60° |
| 2026-04-14 18:24 | 57.25466 | -5.82250 | 246 ft | 70 kts | 62° |
| 2026-04-14 18:24 | 57.25726 | -5.81414 | 474 ft | 78 kts | 57° |
| 2026-04-14 18:24 | 57.26043 | -5.80549 | 707 ft | 85 kts | 54° |
| 2026-04-14 18:24 | 57.26406 | -5.79636 | 939 ft | 91 kts | 52° |
| 2026-04-14 18:25 | 57.26800 | -5.78698 | 1167 ft | 94 kts | 49° |
| 2026-04-14 18:25 | 57.27260 | -5.77822 | 1398 ft | 97 kts | 39° |
| 2026-04-14 18:25 | 57.27839 | -5.77208 | 1626 ft | 98 kts | 21° |
| 2026-04-14 18:25 | 57.28497 | -5.76821 | 1855 ft | 99 kts | 14° |
| 2026-04-14 18:26 | 57.29117 | -5.76220 | 1997 ft | 107 kts | 34° |
| 2026-04-14 18:26 | 57.29724 | -5.75345 | 2103 ft | 114 kts | 39° |
| 2026-04-14 18:26 | 57.30335 | -5.74369 | 2205 ft | 118 kts | 41° |
| 2026-04-14 18:26 | 57.30954 | -5.73347 | 2307 ft | 120 kts | 41° |
| 2026-04-14 18:27 | 57.31571 | -5.72318 | 2407 ft | 121 kts | 41° |
| 2026-04-14 18:27 | 57.32183 | -5.71293 | 2603 ft | 115 kts | 41° |
| 2026-04-14 18:27 | 57.32758 | -5.70331 | 2848 ft | 109 kts | 41° |
| 2026-04-14 18:27 | 57.33332 | -5.69369 | 2985 ft | 115 kts | 41° |
| 2026-04-14 18:28 | 57.33963 | -5.68375 | 2997 ft | 124 kts | 31° |
| 2026-04-14 18:28 | 57.34808 | -5.68189 | 2997 ft | 125 kts | 345° |
| 2026-04-14 18:28 | 57.35484 | -5.69146 | 2996 ft | 125 kts | 301° |
| 2026-04-14 18:28 | 57.35614 | -5.70700 | 2996 ft | 125 kts | 257° |
| 2026-04-14 18:29 | 57.35252 | -5.72153 | 3000 ft | 125 kts | 243° |
| 2026-04-14 18:29 | 57.34946 | -5.73663 | 2999 ft | 125 kts | 255° |
| 2026-04-14 18:29 | 57.34795 | -5.75243 | 2998 ft | 125 kts | 265° |
| 2026-04-14 18:29 | 57.34857 | -5.76822 | 3105 ft | 121 kts | 278° |
| 2026-04-14 18:30 | 57.35022 | -5.78323 | 3277 ft | 118 kts | 283° |
| 2026-04-14 18:30 | 57.35217 | -5.79783 | 3450 ft | 116 kts | 284° |
| 2026-04-14 18:30 | 57.35420 | -5.81229 | 3624 ft | 115 kts | 284° |
| 2026-04-14 18:30 | 57.35821 | -5.82478 | 3792 ft | 114 kts | 314° |
| 2026-04-14 18:31 | 57.36460 | -5.83335 | 3956 ft | 114 kts | 331° |
| 2026-04-14 18:31 | 57.37208 | -5.83962 | 3997 ft | 123 kts | 338° |
| 2026-04-14 18:31 | 57.38030 | -5.84499 | 4000 ft | 127 kts | 341° |
| 2026-04-14 18:31 | 57.38871 | -5.84994 | 4000 ft | 127 kts | 342° |
| 2026-04-14 18:32 | 57.39725 | -5.85481 | 3999 ft | 127 kts | 343° |
| 2026-04-14 18:32 | 57.40560 | -5.85954 | 3999 ft | 127 kts | 343° |
| 2026-04-14 18:32 | 57.41408 | -5.86434 | 3999 ft | 127 kts | 343° |
| 2026-04-14 18:32 | 57.42253 | -5.86913 | 3999 ft | 127 kts | 343° |
| 2026-04-14 18:33 | 57.43096 | -5.87390 | 3999 ft | 127 kts | 343° |
| 2026-04-14 18:33 | 57.43939 | -5.87868 | 3999 ft | 127 kts | 343° |
| 2026-04-14 18:33 | 57.44781 | -5.88346 | 3999 ft | 127 kts | 343° |
| 2026-04-14 18:34 | 57.47315 | -5.89785 | 3999 ft | 127 kts | 343° |
| 2026-04-14 18:34 | 57.48159 | -5.90264 | 3999 ft | 127 kts | 343° |
| 2026-04-14 18:34 | 57.49001 | -5.90743 | 3999 ft | 127 kts | 343° |
| 2026-04-14 18:35 | 57.49843 | -5.91222 | 3999 ft | 127 kts | 343° |
| 2026-04-14 18:35 | 57.50691 | -5.91704 | 3999 ft | 127 kts | 343° |
| 2026-04-14 18:35 | 57.51526 | -5.92180 | 3999 ft | 127 kts | 343° |
| 2026-04-14 18:35 | 57.52371 | -5.92661 | 3999 ft | 127 kts | 343° |
| 2026-04-14 18:36 | 57.53215 | -5.93142 | 3999 ft | 127 kts | 343° |
| 2026-04-14 18:36 | 57.54054 | -5.93620 | 3999 ft | 127 kts | 343° |
| 2026-04-14 18:36 | 57.54903 | -5.94105 | 3999 ft | 127 kts | 343° |
| 2026-04-14 18:36 | 57.55744 | -5.94585 | 3999 ft | 127 kts | 343° |
| 2026-04-14 18:37 | 57.56587 | -5.95071 | 4000 ft | 127 kts | 342° |
| 2026-04-14 18:37 | 57.57426 | -5.95606 | 4000 ft | 127 kts | 340° |
| 2026-04-14 18:37 | 57.58255 | -5.96155 | 4000 ft | 127 kts | 340° |
| 2026-04-14 18:37 | 57.59077 | -5.96705 | 3999 ft | 127 kts | 340° |
| 2026-04-14 18:38 | 57.59912 | -5.97265 | 3999 ft | 127 kts | 340° |
| 2026-04-14 18:38 | 57.60747 | -5.97826 | 3999 ft | 127 kts | 340° |
| 2026-04-14 18:38 | 57.61577 | -5.98384 | 3999 ft | 127 kts | 340° |
| 2026-04-14 18:38 | 57.62397 | -5.98935 | 3999 ft | 127 kts | 340° |
| 2026-04-14 18:39 | 57.63228 | -5.99494 | 3999 ft | 127 kts | 340° |
| 2026-04-14 18:39 | 57.64062 | -6.00055 | 3999 ft | 127 kts | 340° |
| 2026-04-14 18:39 | 57.64891 | -6.00613 | 3999 ft | 127 kts | 340° |
| 2026-04-14 18:39 | 57.65720 | -6.01171 | 3999 ft | 127 kts | 340° |
| 2026-04-14 18:40 | 57.66547 | -6.01728 | 3999 ft | 127 kts | 340° |
| 2026-04-14 18:40 | 57.67375 | -6.02286 | 3999 ft | 127 kts | 340° |
| 2026-04-14 18:40 | 57.68204 | -6.02846 | 3999 ft | 127 kts | 340° |
| 2026-04-14 18:40 | 57.69043 | -6.03412 | 3999 ft | 127 kts | 340° |
| 2026-04-14 18:41 | 57.69867 | -6.03968 | 3999 ft | 127 kts | 340° |
| 2026-04-14 18:41 | 57.70700 | -6.04531 | 3999 ft | 127 kts | 340° |
| 2026-04-14 18:41 | 57.71525 | -6.05091 | 4000 ft | 127 kts | 340° |
| 2026-04-14 18:41 | 57.72356 | -6.05661 | 3999 ft | 127 kts | 340° |
| 2026-04-14 18:42 | 57.73183 | -6.06233 | 3999 ft | 127 kts | 340° |
| 2026-04-14 18:42 | 57.74009 | -6.06809 | 3999 ft | 127 kts | 339° |
| 2026-04-14 18:42 | 57.74828 | -6.07372 | 3999 ft | 127 kts | 340° |
| 2026-04-14 18:42 | 57.75658 | -6.07930 | 3999 ft | 127 kts | 340° |
| 2026-04-14 18:43 | 57.76499 | -6.08486 | 3999 ft | 127 kts | 340° |
| 2026-04-14 18:43 | 57.77326 | -6.09031 | 4000 ft | 127 kts | 340° |
| 2026-04-14 18:43 | 57.78151 | -6.09582 | 4000 ft | 127 kts | 340° |
| 2026-04-14 18:43 | 57.78989 | -6.10147 | 3999 ft | 127 kts | 340° |
| 2026-04-14 18:44 | 57.79820 | -6.10710 | 3999 ft | 127 kts | 340° |
| 2026-04-14 18:44 | 57.80647 | -6.11272 | 3999 ft | 127 kts | 340° |
| 2026-04-14 18:44 | 57.81474 | -6.11834 | 3999 ft | 127 kts | 340° |
| 2026-04-14 18:44 | 57.82299 | -6.12395 | 3999 ft | 127 kts | 340° |
| 2026-04-14 18:45 | 57.83138 | -6.12965 | 3999 ft | 127 kts | 340° |
| 2026-04-14 18:45 | 57.83963 | -6.13526 | 3999 ft | 127 kts | 340° |
| 2026-04-14 18:45 | 57.84790 | -6.14083 | 3999 ft | 127 kts | 340° |
| 2026-04-14 18:45 | 57.85630 | -6.14646 | 3846 ft | 128 kts | 340° |
| 2026-04-14 18:46 | 57.86463 | -6.15203 | 3672 ft | 127 kts | 340° |
| 2026-04-14 18:46 | 57.87292 | -6.15759 | 3496 ft | 126 kts | 340° |
| 2026-04-14 18:46 | 57.88122 | -6.16317 | 3320 ft | 126 kts | 340° |
| 2026-04-14 18:46 | 57.88943 | -6.16871 | 3144 ft | 125 kts | 340° |
| 2026-04-14 18:47 | 57.89753 | -6.17416 | 3019 ft | 124 kts | 340° |
| 2026-04-14 18:47 | 57.90560 | -6.17963 | 3002 ft | 123 kts | 340° |
| 2026-04-14 18:47 | 57.91372 | -6.18513 | 3000 ft | 124 kts | 340° |
| 2026-04-14 18:47 | 57.92191 | -6.19067 | 3000 ft | 125 kts | 340° |
| 2026-04-14 18:48 | 57.93006 | -6.19618 | 3000 ft | 125 kts | 340° |
| 2026-04-14 18:48 | 57.93827 | -6.20172 | 3000 ft | 125 kts | 340° |
| 2026-04-14 18:48 | 57.94640 | -6.20722 | 3000 ft | 125 kts | 340° |
| 2026-04-14 18:48 | 57.95454 | -6.21272 | 2999 ft | 125 kts | 340° |
| 2026-04-14 18:49 | 57.96279 | -6.21831 | 2999 ft | 125 kts | 340° |
| 2026-04-14 18:49 | 57.97089 | -6.22379 | 2999 ft | 125 kts | 340° |
| 2026-04-14 18:49 | 57.97917 | -6.22940 | 2999 ft | 125 kts | 340° |
| 2026-04-14 18:49 | 57.98732 | -6.23492 | 2999 ft | 125 kts | 340° |
| 2026-04-14 18:50 | 57.99546 | -6.24044 | 2999 ft | 125 kts | 340° |
| 2026-04-14 18:50 | 58.00362 | -6.24598 | 2999 ft | 125 kts | 340° |
| 2026-04-14 18:50 | 58.01195 | -6.25161 | 2848 ft | 126 kts | 340° |
| 2026-04-14 18:50 | 58.01985 | -6.25693 | 2668 ft | 117 kts | 340° |
| 2026-04-14 18:51 | 58.02736 | -6.26202 | 2492 ft | 114 kts | 340° |
| 2026-04-14 18:51 | 58.03482 | -6.26709 | 2316 ft | 113 kts | 340° |
| 2026-04-14 18:51 | 58.04216 | -6.27208 | 2142 ft | 113 kts | 340° |